Time;durP1;ratioP1;P1;durP2;ratioP2;P2;SDS_P1;SDS_P2;PMS_P1;PMS_P2;Temp;Humidity;BMP_temperature;BMP_pressure;BME280_temperature;BME280_humidity;BME280_pressure;Samples;Min_cycle;Max_cycle;Signal;HPM_P1;HPM_P2
2023/12/17 00:02:13;;;;;;;3.93;3.47;;;;;;;-0.77;100.00;99817.72;5093047;28;20491;-65
2023/12/17 00:04:39;;;;;;;3.87;3.50;;;;;;;-0.47;100.00;99827.66;5093063;28;20047;-69
2023/12/17 00:07:04;;;;;;;6.63;4.13;;;;;;;-0.21;100.00;99862.31;5093327;28;20032;-68
2023/12/17 00:09:30;;;;;;;6.67;5.13;;;;;;;-0.32;100.00;99834.34;5093210;28;20036;-69
2023/12/17 00:11:55;;;;;;;7.00;5.63;;;;;;;-0.30;100.00;99815.91;5093035;28;20399;-70
2023/12/17 00:14:21;;;;;;;4.50;3.23;;;;;;;-0.25;100.00;99812.97;5092652;28;20060;-67
2023/12/17 00:16:46;;;;;;;4.50;3.60;;;;;;;-0.19;100.00;99810.72;5091601;28;20051;-67
2023/12/17 00:19:12;;;;;;;3.20;2.77;;;;;;;-0.13;100.00;99814.63;5091973;28;20024;-67
2023/12/17 00:21:38;;;;;;;3.47;2.90;;;;;;;-0.12;100.00;99805.84;5092988;28;20039;-66
2023/12/17 00:24:03;;;;;;;3.07;2.47;;;;;;;-0.08;100.00;99788.94;5093001;28;20042;-66
2023/12/17 00:26:29;;;;;;;4.90;3.73;;;;;;;-0.08;100.00;99778.47;5093577;28;20043;-66
2023/12/17 00:28:54;;;;;;;2.80;2.47;;;;;;;-0.25;100.00;99744.94;5092681;28;20053;-65
2023/12/17 00:31:20;;;;;;;2.47;2.27;;;;;;;-0.05;100.00;99773.00;5092269;28;20562;-68
2023/12/17 00:33:46;;;;;;;3.93;2.23;;;;;;;-0.15;100.00;99724.94;5092176;28;20399;-67
2023/12/17 00:36:12;;;;;;;2.77;2.30;;;;;;;-0.05;100.00;99723.25;5092470;28;20135;-66
2023/12/17 00:38:38;;;;;;;3.07;2.17;;;;;;;-0.26;100.00;99656.94;5092924;28;20309;-66
2023/12/17 00:41:04;;;;;;;2.93;2.23;;;;;;;-0.24;100.00;99648.00;5092836;28;20044;-67
2023/12/17 00:43:29;;;;;;;2.37;1.80;;;;;;;-0.12;100.00;99672.38;5094574;28;20043;-67
2023/12/17 00:45:55;;;;;;;2.50;1.90;;;;;;;-0.29;100.00;99628.38;5094453;28;20263;-67
2023/12/17 00:48:20;;;;;;;4.90;2.90;;;;;;;0.12;100.00;99703.63;5094977;28;20112;-69
2023/12/17 00:50:46;;;;;;;2.17;1.80;;;;;;;0.11;100.00;99694.94;5095773;28;20710;-66
2023/12/17 00:53:12;;;;;;;2.03;1.60;;;;;;;0.15;100.00;99706.81;5095209;28;20035;-67
2023/12/17 00:55:37;;;;;;;2.17;1.97;;;;;;;0.11;100.00;99683.63;5093236;28;20048;-67
2023/12/17 00:58:03;;;;;;;4.00;2.00;;;;;;;0.13;100.00;99693.03;5075131;28;20546;-72
2023/12/17 01:00:28;;;;;;;2.70;2.20;;;;;;;0.19;100.00;99687.28;5093709;28;20372;-67
2023/12/17 01:02:54;;;;;;;2.50;1.73;;;;;;;0.24;100.00;99679.91;5092178;28;20491;-69
2023/12/17 01:05:19;;;;;;;2.10;1.90;;;;;;;0.23;100.00;99686.09;5092111;28;20024;-68
2023/12/17 01:07:45;;;;;;;2.40;2.20;;;;;;;0.16;100.00;99671.84;5095229;28;20032;-65
2023/12/17 01:10:10;;;;;;;2.77;1.80;;;;;;;0.08;100.00;99636.75;5095361;28;20036;-66
2023/12/17 01:12:36;;;;;;;1.93;1.83;;;;;;;0.08;100.00;99642.81;5093436;28;20118;-68
2023/12/17 01:15:02;;;;;;;1.57;1.47;;;;;;;-0.03;100.00;99608.81;5091543;28;20143;-65
2023/12/17 01:17:29;;;;;;;2.33;1.57;;;;;;;0.03;100.00;99613.56;5093119;28;20089;-66
2023/12/17 01:19:54;;;;;;;1.70;1.60;;;;;;;0.16;100.00;99624.72;5093489;28;20274;-65
2023/12/17 01:22:20;;;;;;;1.50;1.40;;;;;;;0.10;100.00;99596.41;5092241;28;20130;-67
2023/12/17 01:24:49;;;;;;;2.83;1.60;;;;;;;0.00;100.00;99574.56;5095448;28;20047;-67
2023/12/17 01:27:15;;;;;;;;;;;;;;;0.24;100.00;99596.09;5101557;28;20035;-64
2023/12/17 01:29:40;;;;;;;1.80;1.70;;;;;;;0.24;100.00;99596.09;5098727;28;19922;-64
2023/12/17 01:32:06;;;;;;;1.40;1.30;;;;;;;0.20;100.00;99584.22;5097617;28;20517;-68
2023/12/17 01:34:31;;;;;;;1.43;1.33;;;;;;;0.16;100.00;99561.88;5095353;28;20031;-66
2023/12/17 01:36:57;;;;;;;1.50;1.40;;;;;;;0.15;100.00;99554.97;5099477;28;20390;-68
2023/12/17 01:39:23;;;;;;;1.63;1.40;;;;;;;0.10;100.00;99519.66;5098606;28;20028;-66
2023/12/17 01:41:48;;;;;;;1.43;1.33;;;;;;;0.30;100.00;99543.25;5094988;28;20535;-69
2023/12/17 01:44:14;;;;;;;1.50;1.40;;;;;;;0.38;100.00;99539.16;5092080;28;20558;-66
2023/12/17 01:46:40;;;;;;;1.40;1.30;;;;;;;0.33;100.00;99526.44;5092231;28;20064;-66
2023/12/17 01:49:06;;;;;;;1.50;1.40;;;;;;;0.24;100.00;99507.06;5091971;28;20365;-70
2023/12/17 01:51:33;;;;;;;1.20;1.10;;;;;;;0.46;100.00;99527.06;5091633;28;20327;-67
2023/12/17 01:54:02;;;;;;;1.10;1.00;;;;;;;0.37;100.00;99506.06;5090672;28;20270;-67
2023/12/17 01:56:29;;;;;;;2.67;1.23;;;;;;;0.51;100.00;99524.91;5091452;28;20036;-68
2023/12/17 01:58:55;;;;;;;1.20;1.10;;;;;;;0.52;100.00;99529.16;5090681;28;20354;-69
2023/12/17 02:01:22;;;;;;;1.30;1.20;;;;;;;0.19;100.00;99466.53;5091884;28;20272;-65
2023/12/17 02:03:48;;;;;;;1.23;1.10;;;;;;;0.44;100.00;99499.34;5091132;28;20042;-65
2023/12/17 02:06:13;;;;;;;1.23;1.20;;;;;;;0.56;100.00;99511.41;5092792;28;20308;-67
2023/12/17 02:08:40;;;;;;;1.50;1.20;;;;;;;0.53;100.00;99501.19;5091492;28;20457;-68
2023/12/17 02:11:05;;;;;;;1.10;1.00;;;;;;;0.46;100.00;99494.81;5093734;28;20142;-67
2023/12/17 02:13:31;;;;;;;1.00;1.00;;;;;;;0.43;100.00;99489.84;5095912;28;20812;-69
2023/12/17 02:15:57;;;;;;;1.13;1.13;;;;;;;0.46;100.00;99489.56;5113335;28;20143;-67
2023/12/17 02:18:23;;;;;;;1.47;1.00;;;;;;;0.57;100.00;99502.59;5113134;28;20039;-70
2023/12/17 02:20:50;;;;;;;1.17;1.07;;;;;;;0.36;100.00;99459.88;5112931;28;20314;-66
2023/12/17 02:23:15;;;;;;;0.90;0.90;;;;;;;0.59;100.00;99490.22;5112901;28;20455;-66
2023/12/17 02:25:41;;;;;;;1.10;1.00;;;;;;;0.59;100.00;99500.69;5111691;28;20326;-66
2023/12/17 02:28:07;;;;;;;1.40;1.00;;;;;;;0.60;100.00;99494.50;5112246;28;20081;-68
2023/12/17 02:30:32;;;;;;;1.20;1.10;;;;;;;0.52;100.00;99468.09;5113096;28;20032;-69
2023/12/17 02:32:58;;;;;;;2.03;1.30;;;;;;;0.60;100.00;99470.91;5111020;28;20039;-66
2023/12/17 02:35:25;;;;;;;1.30;1.20;;;;;;;0.61;100.00;99467.34;5112042;28;20042;-67
2023/12/17 02:37:51;;;;;;;1.00;1.00;;;;;;;0.72;100.00;99463.78;5112294;28;20483;-67
2023/12/17 02:40:17;;;;;;;1.00;0.90;;;;;;;0.76;100.00;99459.94;5111476;28;20284;-65
2023/12/17 02:42:43;;;;;;;1.30;1.10;;;;;;;0.76;100.00;99454.69;5112813;28;20112;-66
2023/12/17 02:45:09;;;;;;;1.30;1.20;;;;;;;0.76;100.00;99457.31;5112989;28;20032;-68
2023/12/17 02:47:35;;;;;;;1.30;1.20;;;;;;;0.74;100.00;99446.13;5113329;28;20359;-67
2023/12/17 02:50:01;;;;;;;2.13;1.37;;;;;;;0.70;100.00;99435.09;5112162;28;20744;-68
2023/12/17 02:52:28;;;;;;;1.33;1.20;;;;;;;0.87;100.00;99452.81;5115331;28;20074;-66
2023/12/17 02:54:54;;;;;;;3.07;1.10;;;;;;;0.86;100.00;99442.44;5116455;28;20301;-68
2023/12/17 02:57:24;;;;;;;1.17;1.00;;;;;;;0.92;100.00;99453.25;5115136;28;20031;-67
2023/12/17 02:59:53;;;;;;;1.30;1.20;;;;;;;0.90;100.00;99438.63;5101368;28;20024;-68
2023/12/17 03:02:19;;;;;;;1.85;1.75;;;;;;;0.95;100.00;99435.59;5129707;28;20265;-66
2023/12/17 03:04:45;;;;;;;2.37;1.30;;;;;;;1.06;100.00;99441.53;5129927;27;20039;-66
2023/12/17 03:07:10;;;;;;;1.63;1.30;;;;;;;1.09;100.00;99429.97;5128128;28;20633;-69
2023/12/17 03:09:36;;;;;;;2.07;1.20;;;;;;;1.11;100.00;99436.72;5127432;28;20482;-67
2023/12/17 03:12:03;;;;;;;1.60;1.30;;;;;;;1.24;100.00;99466.16;5129235;28;20095;-67
2023/12/17 03:14:31;;;;;;;1.30;1.17;;;;;;;0.98;100.00;99424.84;5125653;28;20040;-68
2023/12/17 03:16:58;;;;;;;1.77;1.55;;;;;;;1.14;100.00;99460.03;5128095;28;20307;-67
2023/12/17 03:19:24;;;;;;;2.43;1.23;;;;;;;1.27;100.00;99475.56;5132725;28;20051;-68
2023/12/17 03:21:50;;;;;;;1.40;1.30;;;;;;;1.28;100.00;99479.84;5129239;28;20297;-66
2023/12/17 03:24:16;;;;;;;3.53;1.70;;;;;;;1.22;100.00;99483.00;5126718;28;20038;-69
2023/12/17 03:26:41;;;;;;;2.30;1.63;;;;;;;1.28;100.00;99482.47;5126595;28;20050;-66
2023/12/17 03:29:07;;;;;;;1.70;1.60;;;;;;;1.26;100.00;99476.53;5129830;28;20027;-66
2023/12/17 03:31:33;;;;;;;2.13;1.87;;;;;;;1.32;100.00;99473.34;5130861;28;20026;-67
2023/12/17 03:33:58;;;;;;;2.27;1.50;;;;;;;1.41;100.00;99483.03;5133093;28;20058;-69
2023/12/17 03:36:24;;;;;;;4.20;2.13;;;;;;;1.46;100.00;99480.84;5131938;28;20136;-66
2023/12/17 03:38:49;;;;;;;3.00;2.23;;;;;;;1.24;100.00;99426.00;5135696;28;20086;-67
2023/12/17 03:41:26;;;;;;;11.37;4.20;;;;;;;1.51;100.00;99468.16;5135833;28;20062;-67
2023/12/17 03:43:55;;;;;;;3.57;2.47;;;;;;;1.65;100.00;99494.94;5134288;28;20089;-67
2023/12/17 03:46:21;;;;;;;7.82;3.20;;;;;;;1.73;100.00;99492.44;5135919;28;20269;-69
2023/12/17 03:48:47;;;;;;;3.10;2.57;;;;;;;1.76;100.00;99492.22;5135964;27;20177;-67
2023/12/17 03:51:13;;;;;;;3.53;2.57;;;;;;;1.61;100.00;99477.81;5125862;28;20407;-67
2023/12/17 03:53:39;;;;;;;4.33;2.30;;;;;;;1.78;100.00;99516.53;5115601;27;20760;-66
2023/12/17 03:56:13;;;;;;;8.23;2.33;;;;;;;1.78;100.00;99527.03;5114443;28;20031;-67
2023/12/17 03:58:39;;;;;;;3.80;1.73;;;;;;;1.80;100.00;99538.22;5114511;28;20050;-66
2023/12/17 04:01:06;;;;;;;3.10;2.20;;;;;;;1.81;100.00;99558.25;5114434;28;20273;-68
2023/12/17 04:03:32;;;;;;;1.50;1.30;;;;;;;1.59;100.00;99516.50;5113671;28;20257;-66
2023/12/17 04:05:59;;;;;;;2.53;1.43;;;;;;;1.76;100.00;99561.28;5114760;28;20740;-66
2023/12/17 04:08:25;;;;;;;3.40;2.57;;;;;;;1.70;100.00;99550.47;5113702;28;20049;-68
2023/12/17 04:10:51;;;;;;;2.20;1.70;;;;;;;1.65;100.00;99539.56;5113333;28;20329;-68
2023/12/17 04:13:19;;;;;;;3.13;1.80;;;;;;;1.64;100.00;99567.59;5112417;28;20280;-67
2023/12/17 04:15:46;;;;;;;2.67;1.70;;;;;;;1.75;100.00;99590.28;5113491;28;20281;-68
2023/12/17 04:18:11;;;;;;;5.50;1.80;;;;;;;1.75;100.00;99596.38;5111873;28;20678;-66
2023/12/17 04:20:38;;;;;;;1.87;1.50;;;;;;;1.72;100.00;99593.16;5113578;28;20323;-70
2023/12/17 04:23:04;;;;;;;2.53;1.43;;;;;;;1.62;100.00;99605.44;5113131;28;20054;-67
2023/12/17 04:25:29;;;;;;;4.30;1.80;;;;;;;1.59;100.00;99608.34;5113008;28;20276;-66
2023/12/17 04:27:55;;;;;;;2.43;1.33;;;;;;;1.68;100.00;99642.47;5113287;28;20285;-65
2023/12/17 04:30:21;;;;;;;2.23;1.40;;;;;;;1.64;100.00;99656.00;5113159;28;20032;-66
2023/12/17 04:32:48;;;;;;;1.60;1.50;;;;;;;1.60;100.00;99644.09;5113418;28;20500;-67
2023/12/17 04:35:14;;;;;;;2.23;1.27;;;;;;;1.59;100.00;99650.31;5113496;28;20027;-66
2023/12/17 04:37:40;;;;;;;1.80;1.30;;;;;;;1.56;100.00;99659.28;5112874;28;20292;-67
2023/12/17 04:40:06;;;;;;;1.80;1.40;;;;;;;1.54;100.00;99659.41;5111407;28;20265;-69
2023/12/17 04:42:32;;;;;;;1.27;1.17;;;;;;;1.52;100.00;99674.47;5113129;28;20039;-67
2023/12/17 04:44:58;;;;;;;3.33;1.33;;;;;;;1.50;100.00;99684.28;5113564;28;20280;-67
2023/12/17 04:47:23;;;;;;;2.00;1.20;;;;;;;1.40;100.00;99680.75;5112914;27;20051;-67
2023/12/17 04:49:49;;;;;;;1.80;1.13;;;;;;;1.44;100.00;99671.66;5113178;28;20108;-66
2023/12/17 04:52:15;;;;;;;6.60;1.17;;;;;;;1.40;100.00;99686.00;5113271;28;20031;-68
2023/12/17 04:54:41;;;;;;;2.50;1.30;;;;;;;1.42;100.00;99697.19;5111444;28;20040;-67
2023/12/17 04:57:06;;;;;;;1.83;1.67;;;;;;;1.35;100.00;99703.91;5112410;28;20031;-67
2023/12/17 04:59:32;;;;;;;5.43;2.33;;;;;;;1.36;100.00;99710.81;5112846;28;20035;-68
2023/12/17 05:01:57;;;;;;;4.97;1.60;;;;;;;1.40;100.00;99716.63;5111252;28;20123;-66
2023/12/17 05:04:23;;;;;;;3.27;1.30;;;;;;;1.16;100.00;99673.19;5111513;28;20492;-66
2023/12/17 05:06:48;;;;;;;1.37;1.23;;;;;;;1.40;100.00;99720.09;5110969;28;20030;-67
2023/12/17 05:09:16;;;;;;;13.40;2.20;;;;;;;1.40;100.00;99730.59;5112700;28;20141;-65
2023/12/17 05:11:42;;;;;;;1.42;1.23;;;;;;;1.43;100.00;99740.81;5112471;28;20485;-65
2023/12/17 05:14:08;;;;;;;2.33;1.30;;;;;;;1.43;100.00;99743.44;5112541;28;20063;-71
2023/12/17 05:16:35;;;;;;;1.40;1.10;;;;;;;1.30;100.00;99732.34;5112889;28;20062;-69
2023/12/17 05:19:00;;;;;;;1.40;1.23;;;;;;;1.41;100.00;99757.66;5102432;28;20336;-67
2023/12/17 05:21:27;;;;;;;1.93;1.20;;;;;;;1.23;100.00;99739.88;5098381;28;20265;-67
2023/12/17 05:23:52;;;;;;;1.73;1.33;;;;;;;1.26;100.00;99746.66;5102547;28;20035;-69
2023/12/17 05:26:18;;;;;;;3.70;1.60;;;;;;;1.37;100.00;99774.63;5100597;28;20284;-67
2023/12/17 05:28:44;;;;;;;2.30;1.43;;;;;;;1.37;100.00;99777.25;5104786;28;20047;-68
2023/12/17 05:31:10;;;;;;;3.20;1.40;;;;;;;1.21;100.00;99769.84;5095950;28;20058;-68
2023/12/17 05:33:35;;;;;;;2.00;1.33;;;;;;;1.29;100.00;99777.88;5100997;28;20031;-69
2023/12/17 05:36:02;;;;;;;3.60;1.60;;;;;;;1.30;100.00;99790.03;5099935;28;20043;-66
2023/12/17 05:38:28;;;;;;;2.03;1.30;;;;;;;1.13;100.00;99777.47;5101354;28;20032;-67
2023/12/17 05:40:56;;;;;;;4.03;1.50;;;;;;;1.17;100.00;99800.72;5107003;28;20285;-67
2023/12/17 05:43:24;;;;;;;3.47;2.23;;;;;;;1.21;100.00;99812.63;5097273;28;20044;-68
2023/12/17 05:45:52;;;;;;;2.87;1.47;;;;;;;0.87;100.00;99766.53;5098333;28;20372;-69
2023/12/17 05:48:18;;;;;;;4.82;1.73;;;;;;;1.13;100.00;99814.19;5106886;28;20277;-71
2023/12/17 05:50:46;;;;;;;2.20;1.30;;;;;;;1.02;100.00;99822.94;5082928;28;20391;-67
2023/12/17 05:53:12;;;;;;;4.50;1.45;;;;;;;0.97;100.00;99808.56;5096756;28;20028;-66
2023/12/17 05:55:38;;;;;;;4.73;1.30;;;;;;;1.00;100.00;99839.75;5108983;28;20036;-66
2023/12/17 05:58:03;;;;;;;1.73;1.63;;;;;;;1.05;100.00;99843.66;5109548;28;20547;-68
2023/12/17 06:00:29;;;;;;;2.47;1.30;;;;;;;0.95;100.00;99857.66;5111651;28;20165;-70
2023/12/17 06:02:57;;;;;;;3.13;1.40;;;;;;;0.82;100.00;99856.00;5111259;28;20039;-68
2023/12/17 06:05:23;;;;;;;1.50;1.30;;;;;;;0.73;100.00;99841.00;5110731;28;20042;-68
2023/12/17 06:07:48;;;;;;;2.70;1.30;;;;;;;0.81;100.00;99882.34;5112588;28;20122;-67
2023/12/17 06:10:14;;;;;;;3.70;1.60;;;;;;;0.66;100.00;99863.44;5110949;28;20501;-68
2023/12/17 06:12:40;;;;;;;3.07;1.33;;;;;;;0.68;100.00;99877.25;5111283;28;20032;-67
2023/12/17 06:15:07;;;;;;;2.00;1.40;;;;;;;0.61;100.00;99883.94;5112044;28;20055;-67
2023/12/17 06:17:32;;;;;;;2.57;2.07;;;;;;;0.59;100.00;99877.97;5111410;28;20057;-66
2023/12/17 06:19:58;;;;;;;2.67;1.30;;;;;;;0.52;100.00;99872.34;5110562;28;20625;-65
2023/12/17 06:22:28;;;;;;;5.43;2.23;;;;;;;0.46;100.00;99882.50;5111894;28;20039;-66
2023/12/17 06:24:53;;;;;;;3.30;1.53;;;;;;;0.53;100.00;99904.63;5112008;28;20430;-69
2023/12/17 06:27:19;;;;;;;4.57;1.80;;;;;;;0.53;100.00;99926.41;5114086;28;20358;-66
2023/12/17 06:29:47;;;;;;;2.47;1.50;;;;;;;0.50;100.00;99920.59;5114144;28;20470;-66
2023/12/17 06:32:12;;;;;;;3.60;1.80;;;;;;;0.47;100.00;99926.91;5114644;28;20031;-68
2023/12/17 06:34:38;;;;;;;3.20;1.60;;;;;;;0.52;100.00;99929.16;5113329;28;20405;-67
2023/12/17 06:37:04;;;;;;;3.13;1.93;;;;;;;0.57;100.00;99938.31;5115696;27;20032;-69
2023/12/17 06:39:30;;;;;;;4.47;1.50;;;;;;;0.64;100.00;99945.75;5115179;28;20099;-66
2023/12/17 06:41:56;;;;;;;8.83;2.03;;;;;;;0.44;100.00;99915.84;5115562;28;20740;-65
2023/12/17 06:44:21;;;;;;;2.80;1.90;;;;;;;0.63;100.00;99967.66;5115573;28;20054;-67
2023/12/17 06:46:49;;;;;;;11.70;2.90;;;;;;;0.65;100.00;99973.59;5116157;28;20044;-69
2023/12/17 06:49:14;;;;;;;4.53;2.50;;;;;;;0.74;100.00;99968.47;5116787;28;20172;-66
2023/12/17 06:51:40;;;;;;;3.13;1.40;;;;;;;0.65;100.00;99952.66;5114043;28;20765;-65
2023/12/17 06:54:07;;;;;;;3.77;1.90;;;;;;;0.92;100.00;99985.41;5114939;28;20042;-67
2023/12/17 06:56:32;;;;;;;7.47;3.07;;;;;;;1.00;100.00;99991.81;5114916;27;20301;-69
2023/12/17 06:58:58;;;;;;;3.90;1.60;;;;;;;0.85;100.00;99968.47;5114832;28;20594;-70
2023/12/17 07:01:23;;;;;;;5.73;1.90;;;;;;;1.06;100.00;100001.81;5114007;28;20040;-67
2023/12/17 07:03:50;;;;;;;3.53;1.60;;;;;;;1.10;100.00;100008.50;5115928;28;20035;-66
2023/12/17 07:06:15;;;;;;;5.47;1.97;;;;;;;1.06;100.00;99997.41;5115597;28;20040;-65
2023/12/17 07:08:41;;;;;;;5.83;1.87;;;;;;;1.14;100.00;100010.75;5115397;28;20292;-67
2023/12/17 07:11:07;;;;;;;7.20;2.13;;;;;;;1.18;100.00;100017.44;5116104;28;20403;-66
2023/12/17 07:13:33;;;;;;;4.07;1.70;;;;;;;1.06;100.00;100004.44;5115402;28;20073;-65
2023/12/17 07:16:03;;;;;;;4.93;1.80;;;;;;;0.90;100.00;99968.13;5117737;28;20094;-66
2023/12/17 07:18:29;;;;;;;6.43;1.70;;;;;;;1.20;100.00;100025.19;5115138;28;20372;-65
2023/12/17 07:20:54;;;;;;;3.37;2.83;;;;;;;0.99;100.00;99984.91;5114979;28;20295;-67
2023/12/17 07:23:24;;;;;;;6.17;2.07;;;;;;;1.16;100.00;100013.28;5119004;28;20038;-66
2023/12/17 07:25:50;;;;;;;11.57;1.70;;;;;;;1.17;100.00;100042.00;5117810;28;20104;-66
2023/12/17 07:28:15;;;;;;;2.90;1.40;;;;;;;1.14;100.00;100028.28;5116363;28;20270;-67
2023/12/17 07:30:41;;;;;;;7.37;1.83;;;;;;;1.09;100.00;100046.16;5115738;28;20097;-65
2023/12/17 07:33:08;;;;;;;3.47;1.70;;;;;;;1.00;100.00;100021.50;5115507;28;20039;-68
2023/12/17 07:35:34;;;;;;;3.60;1.57;;;;;;;1.17;100.00;100042.00;5115116;28;20439;-66
2023/12/17 07:37:59;;;;;;;4.07;1.57;;;;;;;1.27;100.00;100068.34;5115660;28;20290;-65
2023/12/17 07:40:25;;;;;;;2.13;1.80;;;;;;;1.13;100.00;100040.56;5114580;28;20744;-68
2023/12/17 07:42:50;;;;;;;6.73;2.03;;;;;;;1.14;100.00;100057.97;5115145;28;20046;-65
2023/12/17 07:45:16;;;;;;;5.57;2.00;;;;;;;1.15;100.00;100069.28;5114667;28;20111;-66
2023/12/17 07:47:42;;;;;;;8.93;2.03;;;;;;;1.26;100.00;100098.16;5125614;28;20039;-67
2023/12/17 07:50:08;;;;;;;3.50;1.87;;;;;;;1.20;100.00;100085.53;5134520;28;20058;-65
2023/12/17 07:52:34;;;;;;;3.73;1.77;;;;;;;1.09;100.00;100073.22;5117121;28;20179;-68
2023/12/17 07:54:59;;;;;;;4.83;2.47;;;;;;;1.26;100.00;100113.88;5128817;28;20325;-67
2023/12/17 07:57:25;;;;;;;8.50;3.27;;;;;;;1.24;100.00;100100.91;5133097;28;20293;-68
2023/12/17 07:59:51;;;;;;;4.13;1.90;;;;;;;0.81;100.00;100056.16;5133645;28;20042;-69
2023/12/17 08:02:17;;;;;;;3.87;1.87;;;;;;;1.13;100.00;100108.75;5136048;28;20027;-67
2023/12/17 08:04:45;;;;;;;3.27;2.07;;;;;;;1.20;100.00;100144.06;5137485;28;20103;-66
2023/12/17 08:07:11;;;;;;;2.30;1.85;;;;;;;1.04;100.00;100127.81;5122044;28;20293;-66
2023/12/17 08:09:36;;;;;;;6.00;3.30;;;;;;;1.25;100.00;100159.44;5120026;28;20042;-69
2023/12/17 08:12:02;;;;;;;4.30;1.80;;;;;;;1.08;100.00;100125.78;5121409;28;20031;-66
2023/12/17 08:14:29;;;;;;;7.43;1.93;;;;;;;1.22;100.00;100149.19;5118208;28;20059;-68
2023/12/17 08:16:55;;;;;;;3.47;1.60;;;;;;;1.11;100.00;100129.00;5122994;28;20043;-66
2023/12/17 08:19:21;;;;;;;3.93;1.60;;;;;;;1.23;100.00;100140.38;5115975;28;20281;-68
2023/12/17 08:21:46;;;;;;;4.90;1.67;;;;;;;1.29;100.00;100157.41;5113425;28;20280;-65
2023/12/17 08:24:12;;;;;;;5.90;1.97;;;;;;;1.31;100.00;100179.94;5112029;28;20126;-67
2023/12/17 08:26:38;;;;;;;4.30;2.00;;;;;;;1.16;100.00;100168.84;5113240;28;20497;-69
2023/12/17 08:29:03;;;;;;;11.30;3.63;;;;;;;1.26;100.00;100181.25;5111894;28;20249;-66
2023/12/17 08:31:29;;;;;;;3.57;1.50;;;;;;;1.34;100.00;100195.44;5112979;28;20032;-66
2023/12/17 08:33:55;;;;;;;7.20;1.93;;;;;;;1.35;100.00;100191.88;5112024;28;20040;-71
2023/12/17 08:36:22;;;;;;;5.53;1.73;;;;;;;1.27;100.00;100194.25;5113259;28;20040;-67
2023/12/17 08:38:48;;;;;;;5.57;1.97;;;;;;;1.23;100.00;100188.41;5113209;28;20127;-68
2023/12/17 08:41:14;;;;;;;7.53;1.87;;;;;;;1.38;100.00;100207.38;5112853;28;20313;-68
2023/12/17 08:43:40;;;;;;;3.13;1.60;;;;;;;1.02;100.00;100137.59;5111565;28;20036;-66
2023/12/17 08:46:06;;;;;;;4.30;2.47;;;;;;;1.19;100.00;100176.50;5112961;28;20538;-66
2023/12/17 08:48:32;;;;;;;3.97;1.70;;;;;;;1.24;100.00;100170.88;5111458;28;20052;-69
2023/12/17 08:50:57;;;;;;;9.63;2.23;;;;;;;1.33;100.00;100191.16;5111655;28;20767;-68
2023/12/17 08:53:23;;;;;;;5.77;2.03;;;;;;;1.30;100.00;100193.19;5112769;28;20039;-68
2023/12/17 08:55:49;;;;;;;7.83;2.80;;;;;;;1.38;100.00;100215.25;5112866;28;20036;-66
2023/12/17 08:58:16;;;;;;;3.27;2.23;;;;;;;1.34;100.00;100215.59;5114097;28;20031;-66
2023/12/17 09:00:42;;;;;;;8.13;2.60;;;;;;;1.21;100.00;100195.56;5113730;28;20364;-66
2023/12/17 09:03:08;;;;;;;6.70;2.70;;;;;;;1.36;100.00;100217.16;5112775;27;20352;-66
2023/12/17 09:05:35;;;;;;;6.27;2.20;;;;;;;1.35;100.00;100231.22;5112455;28;20031;-67
2023/12/17 09:08:02;;;;;;;14.70;5.13;;;;;;;1.38;100.00;100233.63;5111126;28;20027;-65
2023/12/17 09:10:28;;;;;;;9.70;4.57;;;;;;;1.39;100.00;100227.41;5111410;28;20265;-66
2023/12/17 09:12:56;;;;;;;9.37;3.47;;;;;;;1.23;100.00;100208.56;5112371;28;20272;-70
2023/12/17 09:15:23;;;;;;;13.00;4.13;;;;;;;1.36;100.00;100237.31;5111217;28;20404;-67
2023/12/17 09:17:50;;;;;;;5.33;2.40;;;;;;;1.31;100.00;100229.78;5111346;28;20046;-69
2023/12/17 09:20:18;;;;;;;5.68;2.42;;;;;;;1.21;100.00;100205.22;5111366;28;20722;-67
2023/12/17 09:22:44;;;;;;;10.47;1.87;;;;;;;1.22;100.00;100220.00;5112544;28;20136;-67
2023/12/17 09:25:10;;;;;;;5.77;1.90;;;;;;;1.15;100.00;100216.16;5111999;28;20317;-70
2023/12/17 09:27:36;;;;;;;5.33;1.70;;;;;;;1.06;100.00;100201.13;5112022;28;20059;-71
2023/12/17 09:30:02;;;;;;;5.80;2.37;;;;;;;1.20;100.00;100221.91;5112421;28;20116;-67
2023/12/17 09:32:30;;;;;;;;;;;;;;;1.32;100.00;100228.84;5112518;28;20481;-68
2023/12/17 09:34:56;;;;;;;5.03;1.77;;;;;;;1.31;100.00;100245.53;5112246;28;19915;-70
2023/12/17 09:37:21;;;;;;;5.90;2.37;;;;;;;1.08;100.00;100204.47;5112049;28;20036;-68
2023/12/17 09:39:47;;;;;;;3.37;1.70;;;;;;;1.21;100.00;100241.94;5113709;28;20063;-69
2023/12/17 09:42:17;;;;;;;7.07;2.47;;;;;;;1.15;100.00;100247.63;5112755;28;20059;-67
2023/12/17 09:44:42;;;;;;;9.60;3.23;;;;;;;1.08;100.00;100246.41;5112398;28;20036;-69
2023/12/17 09:47:08;;;;;;;4.43;1.93;;;;;;;1.02;100.00;100257.38;5110682;28;20280;-66
2023/12/17 09:49:34;;;;;;;6.33;2.50;;;;;;;0.98;100.00;100258.56;5110511;28;20633;-69
2023/12/17 09:52:11;;;;;;;6.20;2.60;;;;;;;1.00;100.00;100264.50;5112271;28;20039;-68
2023/12/17 09:54:37;;;;;;;6.30;2.90;;;;;;;0.94;100.00;100255.31;5111127;28;20042;-67
2023/12/17 09:57:06;;;;;;;12.37;2.77;;;;;;;0.97;100.00;100265.59;5111123;28;20346;-66
2023/12/17 09:59:32;;;;;;;3.40;1.80;;;;;;;0.90;100.00;100269.63;5112724;28;20376;-67
2023/12/17 10:01:57;;;;;;;5.90;2.23;;;;;;;0.90;100.00;100270.44;5119597;28;20077;-65
2023/12/17 10:04:24;;;;;;;2.90;1.60;;;;;;;0.94;100.00;100276.31;5118215;28;20099;-70
2023/12/17 10:06:53;;;;;;;4.80;2.50;;;;;;;0.09;100.00;100157.63;5115089;28;20043;-70
2023/12/17 10:09:19;;;;;;;8.23;2.53;;;;;;;0.94;100.00;100281.53;5114752;28;20266;-67
2023/12/17 10:11:45;;;;;;;8.63;2.80;;;;;;;0.85;100.00;100263.84;5115890;28;20620;-69
2023/12/17 10:14:32;;;;;;;4.93;1.93;;;;;;;0.96;100.00;100303.25;5114270;28;20043;-65
2023/12/17 10:16:58;;;;;;;6.47;2.07;;;;;;;1.01;100.00;100308.97;5115658;28;20070;-65
2023/12/17 10:19:24;;;;;;;3.87;1.90;;;;;;;0.81;100.00;100270.25;5115615;28;20262;-66
2023/12/17 10:21:50;;;;;;;5.43;1.97;;;;;;;1.08;100.00;100325.09;5115943;27;20754;-66
2023/12/17 10:24:17;;;;;;;4.37;2.00;;;;;;;1.08;100.00;100325.94;5115777;28;20772;-65
2023/12/17 10:26:47;;;;;;;9.23;2.53;;;;;;;1.08;100.00;100319.84;5116242;28;20273;-69
2023/12/17 10:29:14;;;;;;;8.13;2.00;;;;;;;1.01;100.00;100323.88;5114873;28;20403;-68
2023/12/17 10:31:44;;;;;;;15.27;3.13;;;;;;;1.03;100.00;100327.22;5097809;28;20261;-66
2023/12/17 10:34:22;;;;;;;6.70;2.40;;;;;;;1.00;100.00;100338.78;5114813;28;20270;-65
2023/12/17 10:36:49;;;;;;;8.80;3.73;;;;;;;0.91;100.00;100345.53;5115788;28;20428;-66
2023/12/17 10:39:15;;;;;;;9.93;2.30;;;;;;;0.93;100.00;100341.00;5114172;28;20285;-67
2023/12/17 10:41:42;;;;;;;9.47;2.40;;;;;;;0.76;100.00;100320.41;5115393;28;20274;-66
2023/12/17 10:44:14;;;;;;;3.87;2.07;;;;;;;0.89;100.00;100336.94;5114571;28;20265;-67
2023/12/17 10:46:44;;;;;;;5.90;1.97;;;;;;;0.86;100.00;100334.50;5114241;28;20787;-67
2023/12/17 10:49:12;;;;;;;7.10;2.20;;;;;;;0.98;100.00;100361.66;5115582;28;20667;-66
2023/12/17 10:51:40;;;;;;;9.57;2.38;;;;;;;0.96;100.00;100346.97;5115286;28;20265;-67
2023/12/17 10:54:07;;;;;;;6.50;2.30;;;;;;;0.95;100.00;100340.06;5115308;28;20089;-69
2023/12/17 10:56:44;;;;;;;5.37;2.07;;;;;;;1.02;100.00;100349.97;5115254;28;20039;-66
2023/12/17 10:59:14;;;;;;;7.23;2.47;;;;;;;0.93;100.00;100356.75;5115044;28;20273;-69
2023/12/17 11:01:42;;;;;;;12.87;4.80;;;;;;;0.82;100.00;100353.19;5113586;28;20811;-68
2023/12/17 11:04:08;;;;;;;5.13;2.00;;;;;;;0.89;100.00;100367.56;5099786;28;20795;-65
2023/12/17 11:06:34;;;;;;;5.07;2.43;;;;;;;0.85;100.00;100366.09;5093312;28;20365;-67
2023/12/17 11:09:00;;;;;;;6.67;2.10;;;;;;;0.88;100.00;100366.72;5094542;28;20024;-64
2023/12/17 11:11:26;;;;;;;4.40;2.27;;;;;;;0.70;100.00;100341.81;5093538;28;20301;-68
2023/12/17 11:13:53;;;;;;;7.27;3.17;;;;;;;0.53;100.00;100310.72;5093821;28;20104;-67
2023/12/17 11:16:28;;;;;;;9.07;3.23;;;;;;;0.87;100.00;100370.31;5092269;28;20797;-65
2023/12/17 11:18:59;;;;;;;7.13;2.63;;;;;;;0.70;100.00;100348.84;5094979;28;20649;-73
2023/12/17 11:21:27;;;;;;;9.13;2.90;;;;;;;0.82;100.00;100371.56;5094657;28;20273;-71
2023/12/17 11:23:52;;;;;;;9.13;2.80;;;;;;;0.85;100.00;100377.41;5094839;28;20262;-67
2023/12/17 11:26:19;;;;;;;10.60;2.60;;;;;;;0.81;100.00;100375.97;5076176;28;20324;-76